Time;durP1;ratioP1;P1;durP2;ratioP2;P2;SDS_P1;SDS_P2;PMS_P1;PMS_P2;Temp;Humidity;BMP_temperature;BMP_pressure;BME280_temperature;BME280_humidity;BME280_pressure;Samples;Min_cycle;Max_cycle;Signal;HPM_P1;HPM_P2
2021/09/19 00:00:13;;;;;;;2.57;2.37;;;24.00;55.80;;;;;;6241470;23;20853;-86
2021/09/19 00:02:39;;;;;;;3.30;2.20;;;24.00;55.80;;;;;;6241759;23;20431;-87
2021/09/19 00:05:07;;;;;;;2.20;2.00;;;24.10;55.90;;;;;;6241449;23;20412;-86
2021/09/19 00:07:33;;;;;;;2.83;2.53;;;24.00;55.80;;;;;;6241314;23;20389;-86
2021/09/19 00:09:58;;;;;;;2.70;2.50;;;24.00;55.80;;;;;;6241365;23;20385;-86
2021/09/19 00:12:28;;;;;;;3.00;1.93;;;24.00;55.80;;;;;;6267780;23;20146;-86
2021/09/19 00:14:54;;;;;;;2.30;2.10;;;24.00;55.80;;;;;;6241950;23;20213;-86
2021/09/19 00:17:20;;;;;;;2.13;1.93;;;24.00;55.90;;;;;;6241094;23;20465;-86
2021/09/19 00:19:46;;;;;;;2.93;2.50;;;24.00;55.80;;;;;;6216993;23;20389;-86
2021/09/19 00:22:12;;;;;;;2.50;2.30;;;24.00;55.80;;;;;;6269277;23;20369;-87
2021/09/19 00:24:38;;;;;;;2.83;2.27;;;24.00;55.80;;;;;;6241645;23;20432;-86
2021/09/19 00:27:07;;;;;;;2.27;1.93;;;24.00;55.80;;;;;;6241874;23;20381;-87
2021/09/19 00:29:33;;;;;;;2.20;2.00;;;24.00;55.80;;;;;;6241456;23;20169;-87
2021/09/19 00:31:59;;;;;;;2.20;2.00;;;24.00;55.80;;;;;;6241101;23;20381;-87
2021/09/19 00:34:25;;;;;;;3.03;2.30;;;24.00;55.80;;;;;;6243587;23;20150;-87
2021/09/19 00:36:51;;;;;;;3.80;2.43;;;24.00;55.90;;;;;;6270319;23;20400;-87
2021/09/19 00:39:17;;;;;;;2.33;2.13;;;24.00;55.90;;;;;;6242047;23;20151;-87
2021/09/19 00:41:43;;;;;;;2.10;1.90;;;24.00;55.90;;;;;;6245049;23;20381;-86
2021/09/19 00:44:14;;;;;;;1.80;1.70;;;24.00;55.90;;;;;;6270357;23;20154;-86
2021/09/19 00:46:40;;;;;;;3.00;2.70;;;24.00;55.90;;;;;;6242381;23;20441;-87
2021/09/19 00:49:06;;;;;;;2.20;2.00;;;24.00;55.90;;;;;;6243951;23;20385;-87
2021/09/19 00:51:34;;;;;;;2.63;1.90;;;24.00;55.90;;;;;;6243253;23;20154;-87
2021/09/19 00:54:02;;;;;;;2.10;1.87;;;24.00;55.90;;;;;;6241338;23;20385;-88
2021/09/19 00:56:31;;;;;;;2.57;2.23;;;24.00;55.90;;;;;;6268357;23;20437;-88
2021/09/19 00:58:57;;;;;;;2.40;2.10;;;24.00;55.90;;;;;;6267764;23;20378;-88
2021/09/19 01:01:24;;;;;;;2.40;2.10;;;24.00;55.90;;;;;;6241702;23;20836;-87
2021/09/19 01:03:52;;;;;;;2.30;2.10;;;24.00;55.90;;;;;;6240422;23;20425;-87
2021/09/19 01:06:19;;;;;;;2.80;2.10;;;24.00;55.90;;;;;;6240808;23;20409;-87
2021/09/19 01:08:45;;;;;;;2.60;2.07;;;24.00;56.00;;;;;;6241338;23;20392;-88
2021/09/19 01:11:42;;;;;;;2.40;2.20;;;24.00;55.90;;;;;;6241702;23;20408;-87
2021/09/19 01:14:10;;;;;;;1.90;1.80;;;24.00;55.90;;;;;;6229083;23;20550;-88
2021/09/19 01:16:46;;;;;;;2.13;1.93;;;24.00;56.00;;;;;;6241164;23;20403;-87
2021/09/19 01:19:20;;;;;;;1.70;1.60;;;24.00;56.00;;;;;;6241375;23;20374;-87
2021/09/19 01:21:48;;;;;;;4.37;2.00;;;24.00;56.60;;;;;;6216464;23;20396;-88
2021/09/19 01:24:15;;;;;;;2.63;2.10;;;23.90;56.00;;;;;;6241438;23;20428;-88
2021/09/19 01:26:45;;;;;;;2.97;2.20;;;24.00;56.10;;;;;;6241123;23;20378;-88
2021/09/19 01:29:11;;;;;;;4.17;1.83;;;24.00;56.10;;;;;;6266778;23;20404;-88
2021/09/19 01:31:38;;;;;;;2.67;2.03;;;24.00;56.10;;;;;;6243065;23;20388;-88
2021/09/19 01:34:04;;;;;;;2.37;2.17;;;23.90;56.00;;;;;;6243743;23;20381;-88
2021/09/19 01:36:36;;;;;;;2.27;2.07;;;24.00;56.10;;;;;;6268129;23;20377;-87
2021/09/19 01:39:09;;;;;;;2.20;2.00;;;24.00;56.10;;;;;;6243037;23;20384;-88
2021/09/19 01:41:36;;;;;;;2.27;1.83;;;24.00;56.10;;;;;;6269304;23;20489;-88
2021/09/19 01:44:06;;;;;;;1.90;1.63;;;24.00;56.10;;;;;;6240212;23;20424;-88
2021/09/19 01:46:37;;;;;;;2.40;2.20;;;24.00;56.10;;;;;;6243433;23;20373;-88
2021/09/19 01:49:10;;;;;;;2.63;2.17;;;24.00;56.10;;;;;;6241647;23;20449;-88
2021/09/19 01:51:36;;;;;;;2.80;2.50;;;23.90;56.00;;;;;;6240514;23;20396;-88
2021/09/19 01:54:03;;;;;;;2.50;2.30;;;24.00;56.10;;;;;;6239785;23;20386;-88
2021/09/19 01:56:29;;;;;;;2.20;2.00;;;24.00;56.10;;;;;;6266147;23;20376;-88
2021/09/19 01:58:56;;;;;;;2.90;2.27;;;24.00;56.10;;;;;;6240181;23;20389;-88
2021/09/19 02:01:23;;;;;;;2.57;2.00;;;24.00;56.10;;;;;;6240426;23;20151;-88
2021/09/19 02:03:51;;;;;;;2.37;2.00;;;24.00;56.20;;;;;;6239426;23;20496;-88
2021/09/19 02:06:21;;;;;;;2.23;2.03;;;24.00;56.10;;;;;;6239486;23;20377;-88
2021/09/19 02:08:48;;;;;;;2.20;1.90;;;24.00;56.10;;;;;;6239940;23;20382;-88
2021/09/19 02:11:20;;;;;;;2.13;1.93;;;23.90;56.10;;;;;;6239915;23;20397;-87
2021/09/19 02:13:47;;;;;;;2.23;1.90;;;24.00;56.20;;;;;;6266120;23;20361;-88
2021/09/19 02:16:23;;;;;;;1.90;1.80;;;23.90;56.10;;;;;;6239585;23;20441;-88
2021/09/19 02:22:13;;;;;;;3.10;1.97;;;24.00;56.20;;;;;;6266251;23;20384;-88
2021/09/19 02:24:40;;;;;;;2.20;2.00;;;23.90;56.20;;;;;;6266224;23;20413;-88
2021/09/19 02:27:07;;;;;;;2.13;1.87;;;23.90;56.20;;;;;;6240356;23;20384;-88
2021/09/19 02:29:33;;;;;;;1.87;1.67;;;23.90;56.20;;;;;;6268216;23;20376;-87
2021/09/19 02:31:58;;;;;;;2.07;1.90;;;23.90;56.20;;;;;;6242123;23;20385;-88
2021/09/19 02:34:26;;;;;;;1.93;1.73;;;23.90;56.20;;;;;;6240591;23;20378;-88
2021/09/19 02:36:55;;;;;;;2.77;2.37;;;23.90;56.20;;;;;;6242568;23;20164;-88
2021/09/19 02:39:21;;;;;;;2.30;2.10;;;23.90;56.20;;;;;;6241633;23;20385;-88
2021/09/19 02:41:47;;;;;;;2.03;1.83;;;23.90;56.20;;;;;;6239970;23;20382;-88
2021/09/19 02:44:13;;;;;;;2.20;2.00;;;23.90;56.20;;;;;;6266172;23;20157;-88
2021/09/19 02:46:42;;;;;;;2.30;2.10;;;23.90;56.20;;;;;;6266830;23;20392;-88
2021/09/19 02:49:09;;;;;;;2.20;1.90;;;23.90;56.20;;;;;;6265704;23;20365;-88
2021/09/19 02:51:38;;;;;;;2.30;2.10;;;23.90;56.20;;;;;;6240196;23;20381;-88
2021/09/19 02:54:04;;;;;;;1.90;1.70;;;23.90;56.20;;;;;;6239132;23;20389;-88
2021/09/19 02:56:33;;;;;;;2.10;1.80;;;23.90;56.30;;;;;;6240165;23;20396;-87
2021/09/19 02:59:01;;;;;;;2.03;1.77;;;23.90;56.20;;;;;;6239442;23;20461;-87
2021/09/19 03:01:27;;;;;;;2.20;2.00;;;23.90;56.20;;;;;;6266539;23;20371;-88
2021/09/19 03:03:53;;;;;;;2.00;1.80;;;23.90;56.20;;;;;;6239360;23;20424;-88
2021/09/19 03:06:21;;;;;;;2.20;2.00;;;23.90;56.20;;;;;;6239281;23;20389;-88
2021/09/19 03:08:51;;;;;;;1.93;1.80;;;23.90;56.20;;;;;;6240038;23;20154;-88
2021/09/19 03:11:17;;;;;;;2.60;2.40;;;23.90;56.20;;;;;;6239757;23;20408;-88
2021/09/19 03:13:43;;;;;;;2.17;1.97;;;23.90;56.30;;;;;;6239078;23;20445;-88
2021/09/19 03:16:08;;;;;;;2.63;1.90;;;23.90;56.30;;;;;;6239105;23;20176;-88
2021/09/19 03:18:35;;;;;;;1.63;1.50;;;23.90;56.30;;;;;;6239956;23;20416;-88
2021/09/19 03:21:00;;;;;;;3.53;2.40;;;23.90;56.30;;;;;;6239672;23;20213;-87
2021/09/19 03:23:26;;;;;;;2.50;1.93;;;23.90;56.30;;;;;;6239477;23;20497;-87
2021/09/19 03:25:53;;;;;;;2.43;2.00;;;23.90;56.30;;;;;;6240706;23;20161;-88
2021/09/19 03:28:19;;;;;;;2.73;1.83;;;23.90;56.40;;;;;;6243506;23;20150;-87
2021/09/19 03:30:45;;;;;;;2.73;2.00;;;23.90;56.40;;;;;;6268961;23;20369;-87
2021/09/19 03:33:11;;;;;;;4.30;1.77;;;23.90;56.40;;;;;;6242464;23;20404;-88
2021/09/19 03:38:59;;;;;;;2.67;2.30;;;23.90;56.30;;;;;;6269935;23;20588;-88
2021/09/19 03:41:25;;;;;;;3.73;1.90;;;23.90;56.40;;;;;;6217746;23;20459;-88
2021/09/19 03:43:53;;;;;;;2.53;2.03;;;23.90;56.40;;;;;;6269035;23;20440;-88
2021/09/19 03:46:21;;;;;;;2.17;1.60;;;23.90;56.40;;;;;;6242647;23;20380;-87
2021/09/19 03:48:47;;;;;;;2.30;2.00;;;23.90;56.40;;;;;;6242602;23;20386;-87
2021/09/19 03:51:13;;;;;;;2.43;2.23;;;23.90;56.40;;;;;;6242959;23;20384;-88
2021/09/19 03:53:38;;;;;;;2.67;1.70;;;23.90;56.40;;;;;;6242111;23;20223;-87
2021/09/19 03:56:06;;;;;;;1.90;1.70;;;23.90;56.40;;;;;;6270005;23;20820;-87
2021/09/19 03:58:31;;;;;;;2.23;2.10;;;23.90;56.40;;;;;;6243084;23;20597;-88
2021/09/19 04:00:57;;;;;;;2.37;1.63;;;23.90;56.40;;;;;;6243117;23;20422;-87
2021/09/19 04:03:23;;;;;;;2.10;1.70;;;23.90;56.40;;;;;;6242868;23;20208;-88
2021/09/19 04:05:52;;;;;;;2.07;1.80;;;23.90;56.40;;;;;;6242914;23;20205;-88
2021/09/19 04:11:40;;;;;;;2.10;1.90;;;23.90;56.40;;;;;;6269131;23;20360;-87
2021/09/19 04:14:06;;;;;;;1.97;1.60;;;23.90;56.50;;;;;;6269153;23;20377;-87
2021/09/19 04:16:32;;;;;;;2.60;1.93;;;23.90;56.50;;;;;;6269345;23;20159;-87
2021/09/19 04:18:58;;;;;;;2.00;1.90;;;23.90;56.50;;;;;;6217877;23;20159;-87
2021/09/19 04:21:24;;;;;;;1.50;1.40;;;23.90;56.50;;;;;;6243754;23;20892;-87
2021/09/19 04:23:50;;;;;;;2.40;1.97;;;23.90;56.50;;;;;;6269549;23;20415;-88
2021/09/19 04:26:16;;;;;;;2.33;1.73;;;23.90;56.40;;;;;;6217953;23;20193;-87
2021/09/19 04:28:42;;;;;;;1.73;1.60;;;23.90;56.40;;;;;;6269191;23;20783;-88
2021/09/19 04:31:08;;;;;;;2.77;2.10;;;23.90;56.40;;;;;;6269766;23;20369;-87
2021/09/19 04:33:33;;;;;;;2.10;1.73;;;23.90;56.40;;;;;;6270723;23;20373;-87
2021/09/19 04:35:59;;;;;;;1.90;1.70;;;23.90;56.40;;;;;;6269924;23;20465;-87
2021/09/19 04:38:28;;;;;;;1.80;1.70;;;23.90;56.40;;;;;;6242209;23;20154;-87
2021/09/19 04:40:54;;;;;;;2.30;1.57;;;24.00;56.40;;;;;;6241161;23;20159;-88
2021/09/19 04:43:23;;;;;;;2.00;1.50;;;23.90;56.30;;;;;;6241931;23;20512;-87
2021/09/19 04:45:51;;;;;;;1.60;1.40;;;24.00;57.00;;;;;;6268279;23;20454;-87
2021/09/19 04:48:19;;;;;;;2.47;2.10;;;24.00;56.40;;;;;;6241371;23;20405;-87
2021/09/19 04:50:45;;;;;;;1.80;1.60;;;24.00;56.40;;;;;;6241469;23;20392;-87
2021/09/19 04:53:11;;;;;;;2.37;1.80;;;24.00;56.90;;;;;;6268088;23;20369;-88
2021/09/19 04:55:37;;;;;;;2.13;1.60;;;24.00;56.30;;;;;;6240989;23;20385;-88
2021/09/19 04:58:03;;;;;;;1.77;1.67;;;24.00;56.30;;;;;;6268038;23;20369;-88
2021/09/19 05:00:29;;;;;;;1.70;1.43;;;24.00;56.40;;;;;;6240817;23;20381;-87
2021/09/19 05:06:17;;;;;;;2.00;1.40;;;24.10;56.40;;;;;;6267300;23;20162;-87
2021/09/19 05:08:44;;;;;;;1.47;1.37;;;24.00;56.30;;;;;;6267844;23;20870;-87
2021/09/19 05:11:10;;;;;;;1.67;1.57;;;24.00;56.30;;;;;;6241079;23;20381;-88
2021/09/19 05:13:43;;;;;;;1.60;1.50;;;24.00;56.30;;;;;;6240333;23;20235;-88
2021/09/19 05:16:09;;;;;;;1.63;1.53;;;24.10;56.40;;;;;;6241123;23;20382;-87
2021/09/19 05:18:35;;;;;;;2.80;1.90;;;24.00;56.30;;;;;;6240658;23;20397;-88
2021/09/19 05:21:02;;;;;;;2.20;1.73;;;24.00;56.30;;;;;;6267959;23;20158;-87
2021/09/19 05:23:30;;;;;;;2.17;1.97;;;24.00;56.30;;;;;;6267777;23;20432;-87
2021/09/19 05:25:57;;;;;;;2.60;1.87;;;24.00;56.30;;;;;;6240737;23;20446;-88
2021/09/19 05:28:23;;;;;;;1.73;1.60;;;24.00;56.20;;;;;;6268204;23;20377;-87
2021/09/19 05:30:51;;;;;;;1.57;1.30;;;24.10;56.40;;;;;;6267220;23;20374;-87
2021/09/19 05:33:20;;;;;;;1.90;1.50;;;24.10;56.30;;;;;;6267185;23;20369;-88
2021/09/19 05:35:46;;;;;;;4.87;1.90;;;24.10;56.30;;;;;;6240827;23;20389;-88
2021/09/19 05:38:12;;;;;;;2.43;1.87;;;24.10;56.30;;;;;;6241663;23;20392;-87
2021/09/19 05:40:41;;;;;;;1.97;1.67;;;24.10;56.30;;;;;;6267368;23;20392;-88
2021/09/19 05:43:07;;;;;;;2.00;1.50;;;24.10;56.30;;;;;;6241964;23;20509;-87
2021/09/19 05:45:34;;;;;;;2.23;1.83;;;24.10;56.30;;;;;;6241423;23;20412;-87
2021/09/19 05:48:00;;;;;;;1.43;1.33;;;24.10;56.30;;;;;;6267406;23;20366;-88
2021/09/19 05:50:26;;;;;;;1.70;1.60;;;24.10;56.30;;;;;;6240092;23;20392;-88
2021/09/19 05:52:52;;;;;;;1.40;1.30;;;24.10;56.30;;;;;;6266591;23;20870;-88
2021/09/19 05:55:19;;;;;;;2.20;2.00;;;24.10;56.30;;;;;;6240218;23;20384;-89
2021/09/19 05:57:45;;;;;;;1.70;1.60;;;24.10;56.30;;;;;;6266264;23;20393;-88
2021/09/19 06:00:13;;;;;;;2.03;1.83;;;24.10;56.30;;;;;;6239960;23;20389;-88
2021/09/19 06:02:40;;;;;;;1.93;1.53;;;24.10;56.30;;;;;;6241041;23;20384;-88
2021/09/19 06:05:32;;;;;;;1.70;1.50;;;24.10;56.30;;;;;;6239647;23;20385;-87
2021/09/19 06:08:00;;;;;;;1.80;1.60;;;24.10;56.20;;;;;;6239833;23;20362;-88
2021/09/19 06:10:29;;;;;;;1.83;1.73;;;24.10;56.30;;;;;;6240239;23;20373;-88
2021/09/19 06:12:54;;;;;;;2.03;1.83;;;24.10;56.40;;;;;;6265706;23;20755;-88
2021/09/19 06:15:20;;;;;;;2.23;1.90;;;24.10;56.30;;;;;;6265529;23;20369;-88
2021/09/19 06:17:48;;;;;;;1.40;1.30;;;24.10;56.30;;;;;;6264803;23;20172;-88
2021/09/19 06:20:27;;;;;;;1.43;1.30;;;24.10;56.30;;;;;;6265635;23;20703;-88
2021/09/19 06:22:53;;;;;;;1.67;1.50;;;24.10;56.30;;;;;;6238581;23;20712;-88
2021/09/19 06:25:19;;;;;;;1.87;1.60;;;24.10;56.30;;;;;;6238972;23;20385;-88
2021/09/19 06:27:47;;;;;;;1.67;1.50;;;24.10;56.30;;;;;;6238984;23;20150;-88
2021/09/19 06:30:14;;;;;;;1.50;1.37;;;24.10;56.30;;;;;;6238991;23;20150;-88
2021/09/19 06:32:40;;;;;;;2.17;1.70;;;24.20;56.40;;;;;;6239283;23;20385;-88
2021/09/19 06:35:07;;;;;;;1.70;1.60;;;24.10;56.30;;;;;;6265230;23;20401;-88
2021/09/19 06:37:33;;;;;;;1.40;1.30;;;24.20;56.40;;;;;;6239322;23;20396;-88
2021/09/19 06:39:58;;;;;;;1.50;1.40;;;24.20;56.40;;;;;;6238384;23;20709;-88
2021/09/19 06:42:24;;;;;;;2.20;1.43;;;24.20;56.40;;;;;;6237938;23;20162;-87
2021/09/19 06:44:50;;;;;;;2.10;1.40;;;24.20;56.40;;;;;;6239040;23;20182;-87
2021/09/19 06:47:16;;;;;;;1.97;1.77;;;24.20;56.40;;;;;;6238824;23;20150;-88
2021/09/19 06:53:05;;;;;;;2.20;1.70;;;24.20;56.30;;;;;;6265533;23;20368;-88
2021/09/19 06:55:31;;;;;;;1.73;1.63;;;24.20;56.40;;;;;;6265534;23;20373;-89
2021/09/19 07:01:21;;;;;;;1.43;1.33;;;24.20;56.40;;;;;;6264678;23;20138;-88
2021/09/19 07:03:48;;;;;;;1.50;1.30;;;24.10;56.40;;;;;;6239016;23;20447;-88
2021/09/19 07:06:14;;;;;;;1.80;1.50;;;24.20;56.50;;;;;;6265179;23;20377;-88
2021/09/19 07:08:41;;;;;;;1.37;1.23;;;24.20;56.50;;;;;;6264961;23;20381;-88
2021/09/19 07:11:06;;;;;;;2.83;1.60;;;24.20;56.50;;;;;;6265217;23;20361;-88
2021/09/19 07:13:32;;;;;;;1.83;1.30;;;24.20;56.40;;;;;;6238093;23;20193;-89
2021/09/19 07:15:58;;;;;;;1.57;1.47;;;24.20;56.40;;;;;;6238617;23;20154;-89
2021/09/19 07:18:25;;;;;;;1.80;1.30;;;24.20;56.40;;;;;;6238010;23;20401;-89
2021/09/19 07:20:54;;;;;;;1.30;1.20;;;24.20;56.40;;;;;;6264382;23;20369;-89
2021/09/19 07:23:22;;;;;;;1.80;1.60;;;24.20;56.40;;;;;;6264940;23;20439;-89
2021/09/19 07:25:52;;;;;;;1.70;1.50;;;24.20;56.40;;;;;;6238495;23;20380;-88
2021/09/19 07:28:18;;;;;;;1.30;1.20;;;24.20;56.40;;;;;;6238248;23;20417;-88
2021/09/19 07:30:46;;;;;;;2.10;1.33;;;24.20;56.40;;;;;;6265014;23;20366;-89
2021/09/19 07:33:22;;;;;;;1.73;1.50;;;24.20;56.40;;;;;;6238510;23;20387;-89
2021/09/19 07:35:55;;;;;;;1.50;1.30;;;24.20;56.40;;;;;;6238933;23;20380;-89
2021/09/19 07:38:23;;;;;;;2.23;1.40;;;24.20;56.40;;;;;;6236934;23;20381;-89
2021/09/19 07:47:13;;;;;;;2.13;1.93;;;24.30;56.50;;;;;;6171573;23;20348;-89
2021/09/19 07:49:39;;;;;;;1.90;1.50;;;24.20;56.40;;;;;;6171489;23;20426;-89
2021/09/19 07:52:58;;;;;;;1.90;1.60;;;24.20;56.40;;;;;;6146911;23;20431;-89
2021/09/19 07:55:31;;;;;;;1.80;1.43;;;24.20;56.30;;;;;;6166990;23;20455;-89
2021/09/19 07:58:02;;;;;;;2.50;1.53;;;24.20;56.90;;;;;;6147345;23;20376;-88
2021/09/19 08:00:36;;;;;;;1.70;1.60;;;24.20;56.30;;;;;;6173189;23;20387;-89
2021/09/19 08:03:05;;;;;;;2.83;2.27;;;24.20;56.30;;;;;;6147463;23;20378;-89
2021/09/19 08:05:31;;;;;;;2.27;2.03;;;24.20;56.20;;;;;;6172410;23;20415;-88
2021/09/19 08:07:58;;;;;;;2.90;2.00;;;24.10;56.10;;;;;;6147740;23;20376;-88
2021/09/19 08:10:28;;;;;;;1.80;1.70;;;24.20;56.20;;;;;;6148164;23;20384;-88
2021/09/19 08:12:54;;;;;;;2.80;1.70;;;24.20;56.20;;;;;;6147478;23;20419;-88
2021/09/19 08:15:21;;;;;;;1.60;1.50;;;24.20;56.20;;;;;;6149536;23;20379;-89
2021/09/19 08:17:58;;;;;;;1.67;1.57;;;24.10;56.20;;;;;;6146508;23;20408;-88
2021/09/19 08:20:23;;;;;;;1.47;1.37;;;24.20;56.20;;;;;;6193540;23;20392;-88
2021/09/19 08:22:50;;;;;;;1.73;1.50;;;24.20;56.20;;;;;;6236725;23;20366;-88
2021/09/19 08:25:36;;;;;;;2.10;1.63;;;24.20;56.20;;;;;;6208087;23;20374;-88
2021/09/19 08:29:23;;;;;;;;;;;;;;;;;;;;;
2021/09/19 08:31:20;;;;;;;2.20;1.33;;;24.20;56.20;;;;;;6222813;23;20378;-88
2021/09/19 08:33:46;;;;;;;12.00;1.87;;;24.10;56.20;;;;;;6209940;23;20385;-89
2021/09/19 08:36:36;;;;;;;1.60;1.33;;;24.20;56.20;;;;;;6236674;23;20381;-89
2021/09/19 08:39:27;;;;;;;1.77;1.60;;;24.20;56.20;;;;;;6232449;23;20385;-86
2021/09/19 08:41:54;;;;;;;1.57;1.47;;;24.20;56.20;;;;;;6213549;23;20398;-86
2021/09/19 08:44:27;;;;;;;3.40;1.60;;;24.20;56.20;;;;;;6214425;23;20970;-86
2021/09/19 08:47:13;;;;;;;;;;;;;;;;;;;;;
2021/09/19 08:49:39;;;;;;;1.97;1.67;;;24.20;56.10;;;;;;6218084;23;20350;-86
2021/09/19 08:52:58;;;;;;;1.63;1.50;;;24.20;56.10;;;;;;6213077;23;20386;-87
2021/09/19 08:55:24;;;;;;;1.60;1.50;;;24.20;56.10;;;;;;6213822;23;20386;-87
2021/09/19 08:57:51;;;;;;;2.20;1.60;;;24.20;56.10;;;;;;6212206;23;20396;-87
2021/09/19 09:00:23;;;;;;;1.70;1.30;;;24.20;56.10;;;;;;6211553;23;20370;-86
2021/09/19 09:02:55;;;;;;;2.47;2.00;;;24.20;56.20;;;;;;6238078;23;20401;-86
2021/09/19 09:05:22;;;;;;;1.60;1.50;;;24.20;56.10;;;;;;6212091;23;20374;-87
2021/09/19 09:07:52;;;;;;;1.70;1.53;;;24.20;56.10;;;;;;6212363;23;20379;-87
2021/09/19 09:10:36;;;;;;;1.40;1.30;;;24.20;56.10;;;;;;6212663;23;20701;-86
2021/09/19 09:13:30;;;;;;;2.37;1.63;;;24.20;56.10;;;;;;6238655;23;20420;-85
2021/09/19 09:16:13;;;;;;;1.60;1.50;;;24.20;56.00;;;;;;6207797;23;20429;-86
2021/09/19 09:18:46;;;;;;;2.60;1.33;;;24.20;56.10;;;;;;6212349;23;20404;-86
2021/09/19 09:21:28;;;;;;;2.30;1.60;;;24.20;56.10;;;;;;6212582;23;20362;-87
2021/09/19 09:24:00;;;;;;;1.67;1.57;;;24.20;56.10;;;;;;6211238;23;20448;-87
2021/09/19 09:26:34;;;;;;;2.13;1.60;;;24.20;56.10;;;;;;6211203;23;20374;-86
2021/09/19 09:29:17;;;;;;;1.50;1.40;;;24.20;56.10;;;;;;6211231;23;20370;-87
2021/09/19 09:31:49;;;;;;;2.77;1.53;;;24.20;56.10;;;;;;6209805;23;20383;-87
2021/09/19 09:34:24;;;;;;;3.03;2.00;;;24.20;56.10;;;;;;6210587;23;20402;-87
2021/09/19 09:36:55;;;;;;;1.93;1.80;;;24.20;56.10;;;;;;6210855;23;20374;-88
2021/09/19 09:39:25;;;;;;;1.63;1.43;;;24.20;56.10;;;;;;6236585;23;20393;-87
2021/09/19 09:41:54;;;;;;;1.40;1.30;;;24.20;56.10;;;;;;6234872;23;20409;-88
2021/09/19 09:44:45;;;;;;;1.77;1.67;;;24.20;56.10;;;;;;6208398;23;20425;-87
2021/09/19 09:47:19;;;;;;;1.93;1.53;;;24.20;56.10;;;;;;6233700;23;20359;-82
2021/09/19 09:50:18;;;;;;;;;;;;;;;;;;;;;
2021/09/19 09:52:46;;;;;;;1.73;1.57;;;24.20;56.10;;;;;;6232854;23;20347;-88
2021/09/19 09:55:22;;;;;;;1.50;1.40;;;24.20;56.10;;;;;;6205804;23;20378;-88
2021/09/19 09:58:24;;;;;;;1.70;1.60;;;24.20;56.10;;;;;;6205893;23;20382;-89
2021/09/19 10:02:03;;;;;;;1.80;1.70;;;24.20;56.10;;;;;;6204791;23;20390;-90
2021/09/19 10:04:32;;;;;;;1.87;1.70;;;24.20;56.10;;;;;;6230111;23;20449;-89
2021/09/19 10:07:02;;;;;;;2.20;1.70;;;24.20;56.20;;;;;;6207403;23;20397;-90
2021/09/19 10:10:06;;;;;;;;;;;;;;;;;;;;;
2021/09/19 10:12:51;;;;;;;2.33;2.13;;;24.20;56.10;;;;;;6235436;23;20354;-90
2021/09/19 10:15:19;;;;;;;1.50;1.40;;;24.20;56.20;;;;;;6206595;23;20363;-88
2021/09/19 10:17:47;;;;;;;1.73;1.60;;;24.10;56.10;;;;;;6247069;23;20401;-88
2021/09/19 10:20:36;;;;;;;2.30;1.47;;;24.10;56.10;;;;;;6238803;23;20401;-89
2021/09/19 10:23:27;;;;;;;1.90;1.67;;;24.20;56.10;;;;;;6263762;23;20404;-89
2021/09/19 10:26:32;;;;;;;1.90;1.70;;;24.20;56.10;;;;;;6238307;23;20393;-89
2021/09/19 10:29:05;;;;;;;2.10;1.90;;;24.20;56.10;;;;;;6235420;23;20453;-89
2021/09/19 11:19:06;;;;;;;2.63;2.23;;;24.00;55.60;;;;;;6082826;23;20727;-86
2021/09/19 11:21:48;;;;;;;1.93;1.60;;;24.00;55.70;;;;;;6056593;23;20404;-87
2021/09/19 11:24:31;;;;;;;;;;;;;;;;;;;;;
2021/09/19 11:26:58;;;;;;;1.70;1.60;;;24.10;55.80;;;;;;6199591;23;20699;-87
2021/09/19 11:34:13;;;;;;;;;;;;;;;;;;;;;
2021/09/19 11:54:11;;;;;;;2.53;2.00;;;24.10;55.80;;;;;;5863995;24;20364;-84
2021/09/19 12:07:45;;;;;;;1.67;1.57;;;24.10;55.80;;;;;;5837245;24;20420;-85
2021/09/19 12:38:29;;;;;;;1.70;1.60;;;24.10;55.90;;;;;;5862902;24;20706;-87
2021/09/19 13:18:41;;;;;;;2.00;1.80;;;24.10;56.10;;;;;;5807362;24;20444;-87
2021/09/19 13:21:21;;;;;;;1.63;1.53;;;24.00;56.10;;;;;;5817685;24;20413;-89
2021/09/19 13:24:04;;;;;;;;;;;;;;;;;;;;;
2021/09/19 13:29:46;;;;;;;1.80;1.50;;;24.10;56.10;;;;;;5861294;24;20412;-87
2021/09/19 13:32:12;;;;;;;1.87;1.67;;;24.10;56.10;;;;;;5863827;24;20366;-89
2021/09/19 13:34:42;;;;;;;2.23;1.40;;;24.10;56.10;;;;;;5842144;24;20463;-88
2021/09/19 13:37:14;;;;;;;1.70;1.60;;;24.10;56.10;;;;;;5878286;24;20404;-89
2021/09/19 13:39:40;;;;;;;2.20;1.60;;;24.10;56.00;;;;;;5967778;24;20422;-89
2021/09/19 13:42:20;;;;;;;2.13;1.70;;;24.10;56.00;;;;;;6054802;23;20401;-88
2021/09/19 13:45:01;;;;;;;;;;;;;;;;;;;;;
2021/09/19 13:47:30;;;;;;;2.13;1.60;;;24.10;56.00;;;;;;6114838;23;20365;-88
2021/09/19 13:49:56;;;;;;;1.70;1.60;;;24.10;56.00;;;;;;6090828;23;20390;-86
2021/09/19 13:52:22;;;;;;;2.33;1.53;;;24.10;56.00;;;;;;6177052;23;20388;-86
2021/09/19 13:54:56;;;;;;;2.20;1.60;;;24.10;56.00;;;;;;6239340;23;20161;-85
2021/09/19 13:57:31;;;;;;;1.50;1.33;;;24.10;56.00;;;;;;6268045;23;20137;-85
2021/09/19 13:59:57;;;;;;;2.27;1.47;;;24.10;56.00;;;;;;6241507;23;20385;-86
2021/09/19 14:02:29;;;;;;;1.90;1.33;;;24.10;56.00;;;;;;6238491;23;20397;-85
2021/09/19 14:05:08;;;;;;;2.40;1.70;;;24.10;56.00;;;;;;6240762;23;20423;-86
2021/09/19 14:07:46;;;;;;;2.10;1.57;;;24.10;56.00;;;;;;6241050;23;20393;-85
2021/09/19 14:10:17;;;;;;;1.57;1.47;;;24.10;56.00;;;;;;6237951;23;20719;-85
2021/09/19 14:12:49;;;;;;;2.50;1.57;;;24.10;56.00;;;;;;6265145;23;20368;-85
2021/09/19 14:15:34;;;;;;;2.50;1.30;;;24.10;56.00;;;;;;6238475;23;20843;-86
2021/09/19 14:18:12;;;;;;;1.50;1.40;;;24.10;56.10;;;;;;6238106;23;20386;-85
2021/09/19 14:21:02;;;;;;;1.73;1.63;;;24.10;56.10;;;;;;6239020;23;20381;-85
2021/09/19 14:23:31;;;;;;;1.77;1.30;;;24.10;56.10;;;;;;6263950;23;20416;-85
2021/09/19 14:26:21;;;;;;;2.13;1.93;;;24.10;56.10;;;;;;6265228;23;20430;-84
2021/09/19 14:28:50;;;;;;;1.33;1.23;;;24.10;56.10;;;;;;6239091;23;20384;-85
2021/09/19 14:31:32;;;;;;;2.20;1.60;;;24.10;56.10;;;;;;6265445;23;20895;-85
2021/09/19 14:34:04;;;;;;;1.47;1.37;;;24.10;56.10;;;;;;6238595;23;20404;-85
2021/09/19 14:36:47;;;;;;;1.47;1.30;;;24.10;56.10;;;;;;6238492;23;20389;-84
2021/09/19 14:39:13;;;;;;;2.50;1.73;;;24.10;56.20;;;;;;6238090;23;20399;-86
2021/09/19 14:41:50;;;;;;;1.50;1.40;;;24.10;56.20;;;;;;6233012;23;20405;-86
2021/09/19 14:44:16;;;;;;;2.37;1.73;;;24.10;56.20;;;;;;6232035;23;20917;-86
2021/09/19 14:46:45;;;;;;;1.60;1.50;;;24.00;56.10;;;;;;6232322;23;20394;-88
2021/09/19 14:49:15;;;;;;;1.73;1.63;;;24.10;56.20;;;;;;6233229;23;20147;-85
2021/09/19 14:51:43;;;;;;;2.00;1.80;;;24.10;56.20;;;;;;6232441;23;20386;-85
2021/09/19 14:54:11;;;;;;;1.77;1.60;;;24.10;56.20;;;;;;6233605;23;20374;-86
2021/09/19 14:56:37;;;;;;;1.70;1.47;;;24.10;56.20;;;;;;6233174;23;20397;-85
2021/09/19 14:59:03;;;;;;;2.10;1.60;;;24.10;56.20;;;;;;6207243;23;20400;-86
2021/09/19 15:01:32;;;;;;;2.03;1.60;;;24.10;56.20;;;;;;6231828;23;20382;-85
2021/09/19 15:04:15;;;;;;;2.30;1.63;;;24.10;56.20;;;;;;6233564;23;20960;-85
2021/09/19 15:06:41;;;;;;;1.43;1.33;;;24.10;56.30;;;;;;6234256;23;20374;-86
2021/09/19 15:09:08;;;;;;;2.33;1.90;;;24.00;56.20;;;;;;6233374;23;20382;-85
2021/09/19 15:11:40;;;;;;;2.23;1.47;;;24.00;56.20;;;;;;6232455;23;20382;-86
2021/09/19 15:17:32;;;;;;;2.07;1.50;;;24.10;56.20;;;;;;6232799;23;20337;-86
2021/09/19 15:20:01;;;;;;;1.53;1.33;;;24.00;56.20;;;;;;6233453;23;20375;-85
2021/09/19 15:22:26;;;;;;;1.50;1.40;;;24.00;56.30;;;;;;6231828;23;20403;-85
2021/09/19 15:24:58;;;;;;;1.77;1.60;;;24.00;56.30;;;;;;6231621;23;21008;-86
2021/09/19 15:27:25;;;;;;;1.60;1.00;;;24.00;56.30;;;;;;6232079;23;20510;-86
2021/09/19 15:29:51;;;;;;;1.73;1.50;;;24.00;56.30;;;;;;6233535;23;20421;-86
2021/09/19 15:32:16;;;;;;;1.87;1.77;;;24.00;56.30;;;;;;6232131;23;20386;-86
2021/09/19 15:34:43;;;;;;;1.50;1.40;;;24.00;56.30;;;;;;6231961;23;20389;-86
2021/09/19 15:37:10;;;;;;;2.63;2.00;;;24.00;56.30;;;;;;6234215;23;20504;-86
2021/09/19 15:39:36;;;;;;;1.80;1.70;;;24.00;56.40;;;;;;6232032;23;20386;-86
2021/09/19 15:42:07;;;;;;;1.90;1.70;;;23.90;56.30;;;;;;6255949;23;20462;-86
2021/09/19 15:44:33;;;;;;;3.10;1.80;;;24.00;56.50;;;;;;6263476;23;20405;-85
2021/09/19 15:46:59;;;;;;;2.53;2.33;;;23.90;56.40;;;;;;6237330;23;20385;-89
2021/09/19 15:49:26;;;;;;;3.07;2.70;;;23.90;56.50;;;;;;6211184;23;20886;-85
2021/09/19 15:51:53;;;;;;;3.97;2.90;;;23.90;56.50;;;;;;6236139;23;20739;-86
2021/09/19 15:54:24;;;;;;;5.40;3.10;;;23.90;56.60;;;;;;6235553;23;20385;-86
2021/09/19 15:56:51;;;;;;;3.30;2.80;;;23.90;56.60;;;;;;6261545;23;20714;-85
2021/09/19 15:59:17;;;;;;;2.90;2.30;;;23.90;56.70;;;;;;6234464;23;20385;-85
2021/09/19 16:01:43;;;;;;;3.53;2.27;;;23.90;56.70;;;;;;6235114;23;20463;-85
2021/09/19 16:04:12;;;;;;;4.23;3.00;;;23.90;56.70;;;;;;6235236;23;20429;-85
2021/09/19 16:06:41;;;;;;;3.50;2.77;;;23.80;56.70;;;;;;6234865;23;20385;-85
2021/09/19 16:09:14;;;;;;;5.90;4.30;;;23.90;56.80;;;;;;6260702;23;20376;-86
2021/09/19 16:11:40;;;;;;;4.00;3.07;;;23.80;56.70;;;;;;6235199;23;20744;-85